createdAt,value
2018-12-17T00:01:39.719Z,304.97
2018-12-17T00:03:46.839Z,279.70
2018-12-17T00:05:53.747Z,246.57
2018-12-17T00:08:01.068Z,254.43
2018-12-17T00:10:08.110Z,235.57
2018-12-17T00:12:16.718Z,221.77
2018-12-17T00:14:23.836Z,215.30
2018-12-17T00:16:30.714Z,201.37
2018-12-17T00:18:38.316Z,180.03
2018-12-17T00:20:45.315Z,174.67
2018-12-17T00:22:52.235Z,206.37
2018-12-17T00:24:59.099Z,191.33
2018-12-17T00:27:05.902Z,166.60
2018-12-17T00:29:12.666Z,173.63
2018-12-17T00:31:19.768Z,190.90
2018-12-17T00:33:26.919Z,165.80
2018-12-17T00:35:33.562Z,184.63
2018-12-17T00:37:40.174Z,185.07
2018-12-17T00:39:47.322Z,204.20
2018-12-17T00:41:54.125Z,213.07
2018-12-17T00:44:00.870Z,226.87
2018-12-17T00:46:07.873Z,226.27
2018-12-17T00:48:14.738Z,201.93
2018-12-17T00:50:21.589Z,212.17
2018-12-17T00:52:28.327Z,224.33
2018-12-17T00:54:35.361Z,217.37
2018-12-17T00:56:42.215Z,229.40
2018-12-17T00:58:49.179Z,223.17
2018-12-17T01:00:56.121Z,230.33
2018-12-17T01:03:02.856Z,240.57
2018-12-17T01:05:10.002Z,239.43
2018-12-17T01:07:18.921Z,244.83
2018-12-17T01:09:25.954Z,254.33
2018-12-17T01:11:32.734Z,245.50
2018-12-17T01:13:39.686Z,259.03
2018-12-17T01:15:46.314Z,248.17
2018-12-17T01:17:53.514Z,236.30
2018-12-17T01:20:00.322Z,205.43
2018-12-17T01:22:07.334Z,205.17
2018-12-17T01:24:14.057Z,196.70
2018-12-17T01:26:21.639Z,196.20
2018-12-17T01:28:28.357Z,206.70
2018-12-17T01:30:35.431Z,207.77
2018-12-17T01:32:42.835Z,210.13
2018-12-17T01:34:50.653Z,216.83
2018-12-17T01:36:57.883Z,228.83
2018-12-17T01:39:05.019Z,219.77
2018-12-17T01:41:11.667Z,239.97
2018-12-17T01:43:18.200Z,236.50
2018-12-17T01:45:25.103Z,239.93
2018-12-17T01:47:31.709Z,233.07
2018-12-17T01:49:38.492Z,241.00
2018-12-17T01:51:45.343Z,244.70
2018-12-17T01:53:52.146Z,246.50
2018-12-17T01:55:59.081Z,253.93
2018-12-17T01:58:05.950Z,252.50
2018-12-17T02:00:12.771Z,250.27
2018-12-17T02:02:19.519Z,254.57
2018-12-17T02:04:26.278Z,265.27
2018-12-17T02:06:33.080Z,269.80
2018-12-17T02:08:40.021Z,260.10
2018-12-17T02:10:46.867Z,265.87
2018-12-17T02:12:53.883Z,266.60
2018-12-17T02:15:00.607Z,270.67
2018-12-17T02:17:07.456Z,267.77
2018-12-17T02:19:14.576Z,248.87
2018-12-17T02:21:21.269Z,254.33
2018-12-17T02:23:28.403Z,233.97
2018-12-17T02:25:35.092Z,217.47
2018-12-17T02:27:41.971Z,207.37
2018-12-17T02:29:48.733Z,205.67
2018-12-17T02:31:55.585Z,222.50
2018-12-17T02:34:02.382Z,189.77
2018-12-17T02:36:09.392Z,203.03
2018-12-17T02:38:16.145Z,187.37
2018-12-17T02:40:23.290Z,217.93
2018-12-17T02:42:30.028Z,214.93
2018-12-17T02:44:36.894Z,218.90
2018-12-17T02:46:43.786Z,230.57
2018-12-17T02:48:50.736Z,195.27
2018-12-17T02:50:57.429Z,202.40
2018-12-17T02:53:04.433Z,243.30
2018-12-17T02:55:11.183Z,213.40
2018-12-17T02:57:18.198Z,232.37
2018-12-17T02:59:25.429Z,237.17
2018-12-17T03:01:32.472Z,233.13
2018-12-17T03:03:39.278Z,241.73
2018-12-17T03:05:46.133Z,233.23
2018-12-17T03:07:53.018Z,249.17
2018-12-17T03:10:00.165Z,242.83
2018-12-17T03:12:07.167Z,227.73
2018-12-17T03:14:14.033Z,262.37
2018-12-17T03:16:21.598Z,257.60
2018-12-17T03:18:28.501Z,260.47
2018-12-17T03:20:35.247Z,269.43
2018-12-17T03:22:42.176Z,254.73
2018-12-17T03:24:49.174Z,242.60
2018-12-17T03:26:56.345Z,229.30
2018-12-17T03:29:03.214Z,223.97
2018-12-17T03:31:10.029Z,199.63
2018-12-17T03:33:17.078Z,200.53
2018-12-17T03:35:23.862Z,200.60
2018-12-17T03:37:30.169Z,188.30
2018-12-17T03:39:36.992Z,221.37
2018-12-17T03:41:44.243Z,204.27
2018-12-17T03:43:51.223Z,219.40
2018-12-17T03:45:57.989Z,235.60
2018-12-17T03:48:04.664Z,226.53
2018-12-17T03:50:11.842Z,238.37
2018-12-17T03:52:19.444Z,243.50
2018-12-17T03:54:26.098Z,243.23
2018-12-17T03:56:33.279Z,248.33
2018-12-17T03:58:40.268Z,233.33
2018-12-17T04:00:47.070Z,217.87
2018-12-17T04:02:53.956Z,216.07
2018-12-17T04:05:00.933Z,210.87
2018-12-17T04:07:07.651Z,189.40
2018-12-17T04:09:14.565Z,178.07
2018-12-17T04:11:21.177Z,170.20
2018-12-17T04:13:27.895Z,171.83
2018-12-17T04:15:35.154Z,208.43
2018-12-17T04:17:41.889Z,221.97
2018-12-17T04:19:48.789Z,202.57
2018-12-17T04:21:55.792Z,218.30
2018-12-17T04:24:03.305Z,229.77
2018-12-17T04:26:10.649Z,239.40
2018-12-17T04:28:17.592Z,244.83
2018-12-17T04:30:24.521Z,244.27
2018-12-17T04:32:31.293Z,242.53
2018-12-17T04:34:38.224Z,244.13
2018-12-17T04:36:45.503Z,228.53
2018-12-17T04:38:52.311Z,244.60
2018-12-17T04:40:59.056Z,246.97
2018-12-17T04:43:07.102Z,242.97
2018-12-17T04:45:13.691Z,250.73
2018-12-17T04:47:20.508Z,238.00
2018-12-17T04:49:27.477Z,236.77
2018-12-17T04:51:35.852Z,269.17
2018-12-17T04:53:42.550Z,239.73
2018-12-17T04:55:49.219Z,249.33
2018-12-17T04:57:56.434Z,239.67
2018-12-17T05:00:04.270Z,212.37
2018-12-17T05:02:10.929Z,211.00
2018-12-17T05:04:17.714Z,201.63
2018-12-17T05:06:24.861Z,216.97
2018-12-17T05:08:31.612Z,205.00
2018-12-17T05:10:38.319Z,204.87
2018-12-17T05:12:45.175Z,229.13
2018-12-17T05:14:51.929Z,218.83
2018-12-17T05:16:58.457Z,233.90
2018-12-17T05:19:05.472Z,221.13
2018-12-17T05:21:12.287Z,221.17
2018-12-17T05:23:19.049Z,186.90
2018-12-17T05:25:25.697Z,174.50
2018-12-17T05:27:32.721Z,168.90
2018-12-17T05:29:39.375Z,158.60
2018-12-17T05:31:46.408Z,167.67
2018-12-17T05:33:53.988Z,175.33
2018-12-17T05:36:01.562Z,226.97
2018-12-17T05:38:08.678Z,209.67
2018-12-17T05:40:15.683Z,215.77
2018-12-17T05:42:22.549Z,211.60
2018-12-17T05:44:29.591Z,213.97
2018-12-17T05:46:37.034Z,229.03
2018-12-17T05:48:44.070Z,234.00
2018-12-17T05:50:50.882Z,232.33
2018-12-17T05:52:57.648Z,241.27
2018-12-17T05:55:04.274Z,236.67
2018-12-17T05:57:10.949Z,237.03
2018-12-17T05:59:17.747Z,221.20
2018-12-17T06:01:24.322Z,240.00
2018-12-17T06:03:31.157Z,235.67
2018-12-17T06:05:38.744Z,246.53
2018-12-17T06:07:45.666Z,242.83
2018-12-17T06:09:52.173Z,242.77
2018-12-17T06:11:59.133Z,245.13
2018-12-17T06:14:06.189Z,242.57
2018-12-17T06:16:12.877Z,242.00
2018-12-17T06:18:19.979Z,231.73
2018-12-17T06:20:26.810Z,217.40
2018-12-17T06:22:33.265Z,220.57
2018-12-17T06:24:40.117Z,191.93
2018-12-17T06:26:46.925Z,177.27
2018-12-17T06:28:53.644Z,181.60
2018-12-17T06:31:00.322Z,172.53
2018-12-17T06:33:07.269Z,172.23
2018-12-17T06:35:14.586Z,192.00
2018-12-17T06:37:21.317Z,217.03
2018-12-17T06:39:28.148Z,194.63
2018-12-17T06:41:35.034Z,233.80
2018-12-17T06:43:41.888Z,218.30
2018-12-17T06:45:49.193Z,223.77
2018-12-17T06:47:55.958Z,239.47
2018-12-17T06:50:03.118Z,249.87
2018-12-17T06:52:10.013Z,242.43
2018-12-17T06:54:16.846Z,247.33
2018-12-17T06:56:23.701Z,257.23
2018-12-17T06:58:30.920Z,261.43
2018-12-17T07:00:37.882Z,250.67
2018-12-17T07:02:44.550Z,253.53
2018-12-17T07:04:51.313Z,253.53
2018-12-17T07:06:58.169Z,259.17
2018-12-17T07:09:06.098Z,252.03
2018-12-17T07:11:12.865Z,253.67
2018-12-17T07:13:19.822Z,255.30
2018-12-17T07:15:26.528Z,273.07
2018-12-17T07:17:33.352Z,252.20
2018-12-17T07:19:40.702Z,261.90
2018-12-17T07:21:47.502Z,245.80
2018-12-17T07:23:54.350Z,240.77
2018-12-17T07:26:01.189Z,204.67
2018-12-17T07:28:08.074Z,192.47
2018-12-17T07:30:14.748Z,185.23
2018-12-17T07:32:21.681Z,179.67
2018-12-17T07:34:29.179Z,172.73
2018-12-17T07:36:36.231Z,170.83
2018-12-17T07:38:43.185Z,225.07
2018-12-17T07:40:49.838Z,221.50
2018-12-17T07:42:56.430Z,222.00
2018-12-17T07:45:05.208Z,238.20
2018-12-17T07:47:12.073Z,244.20
2018-12-17T07:49:19.623Z,243.87
2018-12-17T07:51:27.203Z,257.43
2018-12-17T07:53:34.309Z,247.33
2018-12-17T07:55:41.276Z,244.23
2018-12-17T07:57:47.941Z,257.63
2018-12-17T07:59:56.867Z,255.13
2018-12-17T08:02:03.974Z,258.80
2018-12-17T08:04:11.200Z,264.47
2018-12-17T08:06:17.855Z,262.27
2018-12-17T08:08:24.670Z,264.97
2018-12-17T08:10:32.047Z,271.53
2018-12-17T08:12:38.774Z,262.33
2018-12-17T08:14:45.470Z,263.40
2018-12-17T08:16:52.982Z,276.70
2018-12-17T08:18:59.714Z,258.90
2018-12-17T08:21:06.445Z,257.60
2018-12-17T08:23:13.309Z,224.27
2018-12-17T08:25:20.046Z,212.23
2018-12-17T08:27:26.774Z,200.20
2018-12-17T08:29:33.493Z,188.53
2018-12-17T08:31:40.517Z,182.57
2018-12-17T08:33:47.378Z,170.00
2018-12-17T08:35:54.401Z,227.33
2018-12-17T08:38:01.258Z,229.77
2018-12-17T08:40:08.777Z,229.97
2018-12-17T08:42:15.620Z,209.33
2018-12-17T08:44:22.419Z,220.87
2018-12-17T08:46:29.163Z,245.30
2018-12-17T08:48:35.886Z,241.63
2018-12-17T08:50:42.869Z,254.83
2018-12-17T08:52:50.046Z,244.60
2018-12-17T08:54:57.045Z,263.30
2018-12-17T08:57:03.886Z,274.73
2018-12-17T08:59:10.943Z,265.17
2018-12-17T09:01:17.738Z,270.33
2018-12-17T09:03:24.780Z,273.80
2018-12-17T09:05:31.628Z,258.47
2018-12-17T09:07:38.800Z,279.87
2018-12-17T09:09:45.790Z,287.97
2018-12-17T09:11:52.557Z,290.00
2018-12-17T09:13:59.356Z,271.03
2018-12-17T09:16:06.391Z,280.60
2018-12-17T09:18:13.884Z,295.27
2018-12-17T09:20:20.854Z,272.33
2018-12-17T09:22:27.758Z,246.73
2018-12-17T09:24:34.429Z,221.30
2018-12-17T09:26:41.378Z,205.30
2018-12-17T09:28:48.547Z,187.37
2018-12-17T09:30:55.347Z,186.70
2018-12-17T09:33:02.458Z,169.80
2018-12-17T09:35:09.203Z,170.17
2018-12-17T09:37:16.303Z,166.00
2018-12-17T09:39:23.078Z,161.03
2018-12-17T09:41:30.198Z,236.20
2018-12-17T09:43:37.317Z,245.87
2018-12-17T09:45:44.237Z,239.07
2018-12-17T09:47:51.125Z,230.37
2018-12-17T09:49:57.813Z,227.47
2018-12-17T09:52:04.621Z,255.73
2018-12-17T09:54:11.567Z,253.80
2018-12-17T09:56:18.287Z,244.60
2018-12-17T09:58:25.978Z,281.00
2018-12-17T10:00:32.594Z,264.40
2018-12-17T10:02:39.566Z,263.10
2018-12-17T10:04:46.477Z,261.80
2018-12-17T10:06:53.348Z,274.33
2018-12-17T10:09:01.149Z,274.60
2018-12-17T10:11:08.285Z,271.00
2018-12-17T10:13:15.961Z,280.97
2018-12-17T10:15:22.750Z,271.00
2018-12-17T10:17:29.753Z,295.30
2018-12-17T10:19:37.059Z,289.50
2018-12-17T10:21:43.839Z,274.13
2018-12-17T10:23:50.858Z,295.43
2018-12-17T10:25:57.514Z,288.40
2018-12-17T10:28:04.738Z,282.03
2018-12-17T10:30:11.541Z,276.10
2018-12-17T10:32:18.511Z,241.17
2018-12-17T10:34:25.280Z,255.30
2018-12-17T10:36:32.107Z,250.80
2018-12-17T10:38:38.992Z,233.83
2018-12-17T10:40:45.691Z,223.13
2018-12-17T10:42:52.425Z,219.97
2018-12-17T10:44:59.259Z,184.93
2018-12-17T10:47:06.166Z,171.30
2018-12-17T10:49:12.867Z,175.17
2018-12-17T10:51:19.579Z,167.17
2018-12-17T10:53:26.409Z,167.47
2018-12-17T10:55:33.334Z,168.47
2018-12-17T10:57:40.326Z,162.67
2018-12-17T10:59:47.026Z,190.70
2018-12-17T11:01:59.222Z,254.10
2018-12-17T11:04:18.130Z,212.13
2018-12-17T11:06:25.295Z,234.33
2018-12-17T11:08:32.205Z,244.60
2018-12-17T11:10:38.839Z,250.00
2018-12-17T11:12:45.658Z,244.43
2018-12-17T11:14:52.320Z,279.70
2018-12-17T11:16:59.015Z,256.60
2018-12-17T11:19:05.779Z,273.67
2018-12-17T11:21:12.651Z,267.00
2018-12-17T11:23:19.869Z,255.50
2018-12-17T11:25:26.818Z,275.37
2018-12-17T11:27:33.313Z,268.97
2018-12-17T11:29:40.134Z,277.13
2018-12-17T11:31:47.029Z,222.07
2018-12-17T11:33:54.262Z,196.13
2018-12-17T11:36:01.127Z,182.20
2018-12-17T11:38:07.901Z,169.43
2018-12-17T11:40:14.568Z,186.30
2018-12-17T11:42:21.631Z,171.70
2018-12-17T11:44:28.391Z,190.13
2018-12-17T11:46:35.140Z,194.87
2018-12-17T11:48:42.407Z,167.23
2018-12-17T11:50:52.074Z,153.17
2018-12-17T11:52:58.846Z,163.37
2018-12-17T11:55:05.630Z,169.23
2018-12-17T11:57:25.377Z,175.40
2018-12-17T11:59:32.173Z,206.00
2018-12-17T12:01:38.833Z,197.47
2018-12-17T12:03:45.819Z,211.97
2018-12-17T12:05:52.847Z,210.67
2018-12-17T12:08:00.395Z,233.00
2018-12-17T12:10:07.368Z,238.40
2018-12-17T12:12:14.826Z,235.47
2018-12-17T12:14:21.800Z,235.93
2018-12-17T12:16:28.481Z,241.30
2018-12-17T12:18:34.810Z,248.10
2018-12-17T12:20:41.806Z,244.57
2018-12-17T12:22:49.176Z,261.13
2018-12-17T12:24:55.967Z,263.00
2018-12-17T12:27:03.078Z,257.17
2018-12-17T12:29:09.956Z,260.77
2018-12-17T12:31:16.615Z,264.93
2018-12-17T12:33:23.230Z,262.77
2018-12-17T12:35:30.429Z,246.27
2018-12-17T12:37:37.465Z,230.00
2018-12-17T12:39:44.336Z,205.13
2018-12-17T12:41:52.189Z,190.60
2018-12-17T12:43:59.055Z,189.50
2018-12-17T12:46:07.218Z,177.73
2018-12-17T12:48:14.036Z,172.87
2018-12-17T12:50:21.079Z,174.53
2018-12-17T12:52:27.732Z,161.87
2018-12-17T12:54:34.637Z,167.93
2018-12-17T12:56:41.831Z,172.20
2018-12-17T12:58:48.514Z,170.23
2018-12-17T13:00:55.598Z,157.00
2018-12-17T13:03:02.516Z,165.00
2018-12-17T13:05:09.277Z,152.93
2018-12-17T13:07:16.176Z,156.70
2018-12-17T13:09:24.274Z,153.90
2018-12-17T13:11:30.782Z,154.90
2018-12-17T13:13:37.402Z,137.57
2018-12-17T13:15:44.133Z,137.03
2018-12-17T13:17:50.939Z,149.13
2018-12-17T13:19:58.465Z,143.87
2018-12-17T13:22:05.417Z,141.40
2018-12-17T13:24:12.305Z,150.67
2018-12-17T13:26:19.070Z,142.63
2018-12-17T13:28:26.131Z,134.57
2018-12-17T13:30:32.674Z,131.23
2018-12-17T13:32:39.661Z,138.50
2018-12-17T13:34:46.633Z,135.33
2018-12-17T13:36:53.706Z,123.97
2018-12-17T13:39:00.651Z,124.70
2018-12-17T13:41:07.641Z,129.37
2018-12-17T13:43:15.039Z,133.47
2018-12-17T13:45:21.488Z,127.13
2018-12-17T13:47:28.327Z,122.80
2018-12-17T13:49:35.249Z,115.93
2018-12-17T13:51:46.539Z,144.17
2018-12-17T13:53:55.582Z,194.03
2018-12-17T13:56:02.598Z,180.70
2018-12-17T13:58:09.302Z,168.47
2018-12-17T14:00:16.534Z,205.77
2018-12-17T14:02:23.527Z,193.90
2018-12-17T14:04:30.122Z,206.57
2018-12-17T14:06:37.062Z,199.43
2018-12-17T14:08:44.918Z,206.67
2018-12-17T14:10:54.319Z,198.27
2018-12-17T14:13:28.484Z,174.37
2018-12-17T14:15:41.769Z,166.23
2018-12-17T14:17:48.790Z,148.63
2018-12-17T14:20:00.158Z,144.70
2018-12-17T14:22:09.472Z,151.27
2018-12-17T14:24:16.583Z,152.97
2018-12-17T14:26:23.877Z,177.30
2018-12-17T14:28:31.644Z,165.53
2018-12-17T14:30:38.539Z,168.87
2018-12-17T14:32:45.482Z,173.97
2018-12-17T14:34:53.836Z,183.83
2018-12-17T14:37:00.785Z,194.93
2018-12-17T14:39:08.857Z,202.40
2018-12-17T14:41:15.707Z,192.27
2018-12-17T14:43:22.367Z,191.97
2018-12-17T14:45:29.166Z,209.27
2018-12-17T14:47:35.930Z,192.80
2018-12-17T14:49:42.755Z,191.93
2018-12-17T14:51:49.365Z,192.73
2018-12-17T14:53:56.036Z,212.30
2018-12-17T14:56:02.815Z,200.27
2018-12-17T14:58:09.529Z,177.40
2018-12-17T15:00:16.373Z,181.17
2018-12-17T15:02:23.603Z,186.80
2018-12-17T15:04:30.578Z,164.40
2018-12-17T15:06:37.128Z,170.77
2018-12-17T15:08:43.997Z,185.17
2018-12-17T15:10:51.016Z,189.27
2018-12-17T15:12:57.957Z,199.20
2018-12-17T15:15:04.837Z,172.13
2018-12-17T15:17:11.596Z,154.27
2018-12-17T15:19:19.024Z,168.27
2018-12-17T15:21:25.977Z,151.80
2018-12-17T15:23:32.734Z,159.77
2018-12-17T15:25:40.013Z,162.57
2018-12-17T15:27:46.722Z,153.47
2018-12-17T15:29:54.089Z,147.87
2018-12-17T15:32:00.723Z,161.33
2018-12-17T15:34:07.461Z,142.93
2018-12-17T15:36:14.821Z,163.57
2018-12-17T15:38:21.818Z,159.00
2018-12-17T15:40:28.493Z,156.63
2018-12-17T15:42:40.761Z,172.60
2018-12-17T15:44:43.944Z,165.07
2018-12-17T15:46:50.899Z,136.87
2018-12-17T15:48:57.543Z,135.43
2018-12-17T15:51:04.394Z,138.93
2018-12-17T15:53:11.726Z,162.70
2018-12-17T15:55:18.526Z,155.40
2018-12-17T15:57:25.218Z,175.47
2018-12-17T15:59:32.266Z,167.63
2018-12-17T16:01:38.906Z,154.97
2018-12-17T16:03:45.767Z,172.43
2018-12-17T16:05:52.610Z,149.67
2018-12-17T16:07:59.422Z,163.67
2018-12-17T16:10:06.281Z,145.67
2018-12-17T16:12:13.326Z,159.77
2018-12-17T16:14:20.801Z,174.37
2018-12-17T16:16:27.746Z,149.70
2018-12-17T16:18:34.604Z,162.57
2018-12-17T16:20:41.620Z,132.57
2018-12-17T16:22:48.720Z,121.27
2018-12-17T16:24:55.503Z,120.07
2018-12-17T16:27:02.474Z,111.77
2018-12-17T16:29:09.329Z,111.57
2018-12-17T16:31:16.160Z,99.33
2018-12-17T16:33:29.704Z,124.67
2018-12-17T16:35:32.318Z,103.93
2018-12-17T16:37:38.934Z,104.80
2018-12-17T16:39:45.921Z,99.50
2018-12-17T16:41:53.023Z,103.47
2018-12-17T16:44:00.339Z,107.00
2018-12-17T16:46:07.241Z,104.80
2018-12-17T16:48:14.202Z,90.30
2018-12-17T16:50:20.942Z,88.37
2018-12-17T16:52:27.741Z,92.03
2018-12-17T16:54:34.777Z,96.43
2018-12-17T16:56:42.196Z,122.07
2018-12-17T16:58:49.411Z,131.40
2018-12-17T17:00:56.431Z,140.67
2018-12-17T17:03:03.054Z,143.67
2018-12-17T17:05:09.935Z,143.03
2018-12-17T17:07:16.782Z,160.93
2018-12-17T17:09:23.965Z,129.33
2018-12-17T17:11:30.985Z,151.37
2018-12-17T17:13:37.886Z,153.07
2018-12-17T17:15:48.338Z,148.10
2018-12-17T17:17:55.450Z,136.97
2018-12-17T17:20:02.172Z,156.03
2018-12-17T17:22:09.105Z,147.40
2018-12-17T17:24:16.071Z,160.17
2018-12-17T17:26:22.916Z,165.43
2018-12-17T17:28:29.718Z,165.43
2018-12-17T17:30:36.770Z,158.40
2018-12-17T17:32:43.355Z,162.13
2018-12-17T17:34:50.180Z,183.00
2018-12-17T17:36:57.089Z,169.03
2018-12-17T17:39:04.737Z,167.60
2018-12-17T17:41:11.574Z,172.10
2018-12-17T17:43:18.281Z,166.37
2018-12-17T17:45:25.384Z,174.73
2018-12-17T17:47:32.095Z,176.70
2018-12-17T17:49:38.979Z,190.67
2018-12-17T17:51:46.321Z,178.50
2018-12-17T17:53:53.339Z,183.37
2018-12-17T17:56:00.044Z,184.83
2018-12-17T17:58:06.770Z,190.97
2018-12-17T18:00:13.977Z,202.67
2018-12-17T18:02:20.678Z,207.00
2018-12-17T18:04:27.725Z,202.70
2018-12-17T18:06:34.930Z,191.30
2018-12-17T18:08:41.950Z,209.27
2018-12-17T18:10:48.678Z,190.20
2018-12-17T18:12:55.582Z,199.27
2018-12-17T18:15:02.857Z,175.27
2018-12-17T18:17:09.795Z,160.90
2018-12-17T18:19:16.696Z,163.83
2018-12-17T18:21:23.662Z,174.83
2018-12-17T18:23:30.408Z,136.23
2018-12-17T18:25:37.021Z,150.07
2018-12-17T18:27:44.102Z,146.03
2018-12-17T18:29:51.009Z,189.00
2018-12-17T18:31:58.114Z,194.33
2018-12-17T18:34:04.783Z,173.63
2018-12-17T18:36:11.525Z,173.10
2018-12-17T18:38:18.588Z,184.50
2018-12-17T18:40:25.510Z,164.87
2018-12-17T18:42:31.962Z,203.30
2018-12-17T18:44:38.587Z,195.67
2018-12-17T18:46:45.518Z,208.90
2018-12-17T18:48:52.522Z,200.50
2018-12-17T18:50:59.458Z,195.27
2018-12-17T18:53:06.499Z,209.50
2018-12-17T18:55:13.072Z,208.77
2018-12-17T18:57:20.073Z,200.60
2018-12-17T18:59:27.021Z,200.87
2018-12-17T19:01:33.937Z,196.30
2018-12-17T19:03:41.044Z,213.00
2018-12-17T19:05:48.208Z,198.70
2018-12-17T19:07:54.926Z,210.60
2018-12-17T19:10:02.297Z,210.57
2018-12-17T19:12:09.210Z,232.60
2018-12-17T19:14:16.003Z,213.27
2018-12-17T19:16:23.038Z,195.07
2018-12-17T19:18:29.954Z,215.57
2018-12-17T19:20:36.682Z,195.67
2018-12-17T19:22:43.536Z,224.30
2018-12-17T19:24:50.190Z,208.97
2018-12-17T19:26:57.114Z,217.73
2018-12-17T19:29:03.831Z,187.03
2018-12-17T19:31:10.692Z,221.77
2018-12-17T19:33:17.678Z,203.33
2018-12-17T19:35:24.413Z,215.90
2018-12-17T19:37:31.145Z,213.20
2018-12-17T19:39:38.166Z,212.20
2018-12-17T19:41:45.183Z,219.90
2018-12-17T19:43:51.942Z,221.37
2018-12-17T19:45:58.838Z,219.47
2018-12-17T19:48:05.786Z,206.53
2018-12-17T19:50:12.573Z,215.33
2018-12-17T19:52:19.461Z,209.00
2018-12-17T19:54:26.442Z,207.07
2018-12-17T19:56:33.466Z,204.27
2018-12-17T19:58:40.385Z,229.70
2018-12-17T20:00:47.330Z,215.73
2018-12-17T20:02:54.393Z,240.77
2018-12-17T20:05:01.422Z,222.70
2018-12-17T20:07:08.202Z,245.27
2018-12-17T20:09:15.365Z,245.10
2018-12-17T20:11:22.540Z,258.60
2018-12-17T20:13:29.487Z,231.33
2018-12-17T20:15:36.487Z,222.57
2018-12-17T20:17:43.093Z,258.30
2018-12-17T20:19:49.674Z,243.00
2018-12-17T20:21:56.539Z,219.17
2018-12-17T20:24:03.208Z,243.97
2018-12-17T20:26:19.750Z,246.97
2018-12-17T20:28:26.926Z,221.50
2018-12-17T20:30:33.723Z,236.40
2018-12-17T20:32:40.562Z,212.50
2018-12-17T20:34:47.514Z,230.07
2018-12-17T20:36:54.095Z,206.63
2018-12-17T20:39:00.713Z,193.17
2018-12-17T20:41:07.654Z,196.20
2018-12-17T20:43:14.386Z,204.27
2018-12-17T20:45:21.460Z,183.07
2018-12-17T20:47:28.286Z,222.90
2018-12-17T20:49:35.365Z,208.30
2018-12-17T20:51:42.793Z,221.87
2018-12-17T20:53:49.700Z,214.47
2018-12-17T20:55:57.213Z,217.57
2018-12-17T20:58:04.094Z,239.97
2018-12-17T21:00:11.799Z,225.63
2018-12-17T21:02:18.873Z,187.63
2018-12-17T21:04:25.805Z,225.53
2018-12-17T21:06:32.762Z,248.20
2018-12-17T21:08:39.807Z,232.40
2018-12-17T21:10:46.617Z,201.87
2018-12-17T21:12:53.900Z,239.17
2018-12-17T21:15:01.313Z,197.17
2018-12-17T21:17:08.420Z,211.57
2018-12-17T21:19:15.645Z,203.57
2018-12-17T21:21:22.953Z,217.10
2018-12-17T21:23:29.959Z,224.37
2018-12-17T21:25:36.657Z,217.20
2018-12-17T21:27:43.683Z,210.43
2018-12-17T21:29:51.131Z,197.20
2018-12-17T21:31:57.865Z,243.95
2018-12-17T21:34:04.546Z,213.37
2018-12-17T21:36:11.197Z,230.17
2018-12-17T21:38:17.972Z,229.50
2018-12-17T21:40:24.714Z,224.33
2018-12-17T21:42:31.403Z,249.70
2018-12-17T21:44:38.207Z,233.87
2018-12-17T21:46:44.937Z,241.53
2018-12-17T21:48:51.756Z,245.93
2018-12-17T21:50:58.598Z,263.05
2018-12-17T21:53:05.846Z,247.50
2018-12-17T21:55:12.631Z,215.37
2018-12-17T21:57:19.310Z,243.87
2018-12-17T21:59:26.246Z,270.57
2018-12-17T22:01:33.097Z,258.73
2018-12-17T22:03:40.034Z,256.23
2018-12-17T22:05:47.076Z,228.57
2018-12-17T22:07:53.640Z,260.43
2018-12-17T22:10:01.101Z,247.73
2018-12-17T22:12:07.956Z,255.83
2018-12-17T22:14:14.703Z,263.67
2018-12-17T22:16:21.471Z,263.93
2018-12-17T22:18:28.256Z,249.10
2018-12-17T22:20:35.604Z,221.17
2018-12-17T22:22:42.607Z,204.40
2018-12-17T22:24:49.334Z,204.97
2018-12-17T22:26:55.996Z,200.57
2018-12-17T22:29:02.731Z,181.73
2018-12-17T22:31:09.760Z,201.37
2018-12-17T22:33:19.689Z,180.47
2018-12-17T22:35:25.920Z,195.70
2018-12-17T22:37:32.470Z,222.07
2018-12-17T22:39:39.241Z,214.87
2018-12-17T22:41:45.786Z,220.13
2018-12-17T22:43:52.737Z,213.87
2018-12-17T22:45:59.637Z,218.43
2018-12-17T22:48:06.393Z,205.63
2018-12-17T22:50:13.149Z,223.63
2018-12-17T22:52:19.999Z,220.80
2018-12-17T22:54:26.853Z,244.93
2018-12-17T22:56:33.666Z,228.50
2018-12-17T22:58:42.511Z,228.40
2018-12-17T23:00:49.425Z,238.13
2018-12-17T23:02:56.495Z,257.50
2018-12-17T23:05:03.633Z,264.73
2018-12-17T23:07:10.482Z,243.63
2018-12-17T23:09:14.992Z,233.77
2018-12-17T23:11:31.641Z,238.47
2018-12-17T23:13:48.237Z,260.43
2018-12-17T23:16:04.887Z,229.37
2018-12-17T23:18:09.245Z,274.33
2018-12-17T23:20:15.817Z,228.27
2018-12-17T23:22:22.481Z,261.87
2018-12-17T23:24:29.601Z,224.10
2018-12-17T23:26:36.513Z,242.03
2018-12-17T23:28:43.233Z,267.70
2018-12-17T23:30:49.871Z,260.50
2018-12-17T23:32:58.867Z,246.03
2018-12-17T23:35:06.635Z,239.97
2018-12-17T23:37:13.578Z,269.73
2018-12-17T23:39:20.717Z,255.00
2018-12-17T23:41:27.603Z,250.63
2018-12-17T23:43:34.574Z,263.00
2018-12-17T23:45:41.262Z,281.60
2018-12-17T23:47:48.250Z,277.33
2018-12-17T23:49:55.170Z,258.30
2018-12-17T23:52:02.250Z,302.97
2018-12-17T23:54:09.263Z,270.33
2018-12-17T23:56:17.106Z,301.07
2018-12-17T23:58:23.986Z,282.27
